Edirne, Turkey
Current Conditions -  °F | °C
As of 12:50 PM on Sunday 25 Jan 2015 (Local Time) from LGAL Reporting Station
Light Rain Light Rain  
Wind Chill: 52°   Ceiling: 2000
Heat Index: 52°   Visibility: 6mi
Dew Point: 48°   Wind: 15mph
Humidity: 88%   Direction: 140°SE
Pressure: 29.8"   Gusts: NA
Location:  41.69°N, 26.56°E
Report Text: LGAL 250950Z 14013KT 9999 -RA FEW018CB BKN020 BKN070 11/09 Q1009
Loading
Personal Weather Stations






























Interactive Weather Map New forecast layout! Learn more

10-Day Weather Forecast

Advertisements
Track Severe Weather on mobile